Tropical Cyclones
[Index]
Main Index Home Page Stock Weather Photos Extreme Storms Discussion Storm News and Storm Chasing Reports Tropical Cyclones / Hurricanes / Typhoons Weather Data and Links Wild Fires / Bushfires Weather Observation Techniques Weather Picture Catalogue Tornado Pictures and Reports Stock Video Footage and DVDs for sale
Season 2007-2008 Tropical Cyclone MELANIE Track Map
Season 2007-2008 Summaries (Operational Data): [AU] [SIO] [SPAC] [SH]
<<- Previous TC | 2007-2008 Season | Next TC ->>

click for intensity scale information  Lat/long Grid: Show Hide

 Date Labels: Show Hide

Operational Tropical Cyclone Data : JTWC Advisories | BoM Warnings

Name: MELANIE
Number: 0808

27 Dec 2007 06:00 UTC to 02 Jan 2008 00:00 UTC

    date/time    lat    long     hPa   cat  kts
2007-12-27 06   11.2   117.5     998         20          
2007-12-27 12   11.7   117.3     998         25          
2007-12-27 18   13.4   117.6     996         30          
2007-12-28 00   14.0   117.7     990         30          
2007-12-28 06   14.4   117.9     984    1    40          
2007-12-28 12   14.9   118.0     984    1    40          
2007-12-28 18   15.3   118.0     980    1    45          
2007-12-29 00   16.7   118.0     974    2    50          
2007-12-29 06   17.1   116.9     966    2    55          
2007-12-29 12   17.3   116.3     966    2    55          
2007-12-29 18   18.0   115.6     964    2    60          
2007-12-30 00   18.2   114.0     964    2    60          
2007-12-30 06   19.1   113.2     966    2    55          
2007-12-30 12   18.9   112.6     966    2    55          
2007-12-30 18   19.1   112.0     968    2    55          
2007-12-31 00   18.7   112.0     976    2    50          
2007-12-31 06   18.8   111.5     980    1    45          
2007-12-31 12   19.0   111.0     980    1    45          
2007-12-31 18   18.8   111.0     982    1    45          
2008-01-01 00   19.3   110.9     982    1    45          
2008-01-01 06   19.9   110.6     986    1    40          
2008-01-01 12   21.0   110.1     986    1    35          
2008-01-01 18   21.7   109.7     988    1    35          
2008-01-02 00   22.6   108.3     990         30          
Winds are 10-min average.

Tropical cyclone tracks developed by Michael Bath using operational warnings and advisories and Google Maps.


[Australian Severe Weather index] [Copyright Notice] [Email Contacts] [Search This Site] [Privacy Policy]
Document: tropical_cyclone_melanie.htm Updated: 2 May 2017